Time;durP1;ratioP1;P1;durP2;ratioP2;P2;SDS_P1;SDS_P2;PMS_P1;PMS_P2;Temp;Humidity;BMP_temperature;BMP_pressure;BME280_temperature;BME280_humidity;BME280_pressure;Samples;Min_cycle;Max_cycle;Signal;HPM_P1;HPM_P2
2024/02/23 00:00:11;;;;;;;4.03;2.30;;;8.90;1.00;;;;;;4442139;28;657311;-74
2024/02/23 00:02:58;;;;;;;2.93;1.80;;;9.00;1.00;;;;;;4408279;28;657133;-74
2024/02/23 00:05:45;;;;;;;3.70;2.00;;;8.90;99.90;;;;;;4434354;28;656781;-74
2024/02/23 00:08:33;;;;;;;4.40;2.23;;;9.00;1.00;;;;;;4413661;28;658034;-75
2024/02/23 00:11:20;;;;;;;3.53;2.07;;;9.00;1.00;;;;;;4429483;28;658034;-74
2024/02/23 00:14:08;;;;;;;2.47;1.60;;;9.00;1.00;;;;;;4417906;28;656777;-74
2024/02/23 00:16:57;;;;;;;4.17;2.00;;;9.00;1.00;;;;;;4382520;28;656286;-75
2024/02/23 00:19:46;;;;;;;4.00;2.20;;;8.90;1.00;;;;;;4404900;28;657196;-74
2024/02/23 00:22:34;;;;;;;2.90;1.80;;;9.00;99.90;;;;;;4421076;28;656614;-74
2024/02/23 00:25:23;;;;;;;3.83;2.07;;;8.90;99.90;;;;;;4435633;28;657688;-75
2024/02/23 00:28:10;;;;;;;3.40;2.13;;;8.80;99.90;;;;;;4414483;28;658716;-74
2024/02/23 00:30:57;;;;;;;4.10;2.20;;;8.70;1.00;;;;;;4428839;28;658273;-75
2024/02/23 00:33:46;;;;;;;4.00;2.13;;;8.70;1.00;;;;;;4439989;28;656935;-75
2024/02/23 00:36:33;;;;;;;4.63;2.50;;;8.70;1.00;;;;;;4412196;28;657014;-75
2024/02/23 00:39:20;;;;;;;2.93;2.13;;;8.60;82.10;;;;;;4440555;28;656937;-75
2024/02/23 00:42:08;;;;;;;4.53;2.60;;;8.30;99.90;;;;;;4417351;28;657232;-74
2024/02/23 00:44:55;;;;;;;2.90;2.20;;;8.40;99.90;;;;;;4436916;28;657830;-75
2024/02/23 00:47:45;;;;;;;8.83;4.50;;;8.30;1.00;;;;;;4408325;28;657287;-74
2024/02/23 00:50:34;;;;;;;8.57;4.50;;;8.20;1.00;;;;;;4416670;28;656541;-74
2024/02/23 00:53:22;;;;;;;5.33;3.20;;;8.20;1.00;;;;;;4443037;28;657734;-74
2024/02/23 00:56:09;;;;;;;7.17;3.63;;;8.10;1.00;;;;;;4411817;28;656666;-74
2024/02/23 00:58:56;;;;;;;11.17;5.60;;;8.00;1.00;;;;;;4443064;28;656500;-75
2024/02/23 01:01:43;;;;;;;10.17;5.03;;;8.00;1.00;;;;;;4416331;28;657837;-74
2024/02/23 01:04:30;;;;;;;38.60;17.07;;;7.90;57.80;;;;;;4447025;28;658566;-74
2024/02/23 01:07:19;;;;;;;26.00;13.37;;;7.90;70.80;;;;;;4413574;28;659641;-75
2024/02/23 01:10:09;;;;;;;39.60;17.70;;;7.80;99.90;;;;;;4423301;28;660076;-74
2024/02/23 01:12:57;;;;;;;26.40;12.03;;;7.80;99.90;;;;;;4349894;28;659728;-75
2024/02/23 01:15:44;;;;;;;12.73;6.23;;;7.70;99.90;;;;;;4393021;28;659862;-74
2024/02/23 01:18:31;;;;;;;9.67;5.00;;;7.70;99.90;;;;;;4440493;28;658692;-75
2024/02/23 01:21:18;;;;;;;10.13;4.90;;;7.60;1.00;;;;;;4414667;28;657688;-75
2024/02/23 01:24:07;;;;;;;10.90;4.93;;;7.60;1.00;;;;;;4440457;28;658570;-75
2024/02/23 01:26:55;;;;;;;9.40;4.77;;;7.60;99.90;;;;;;4417430;28;657661;-74
2024/02/23 01:29:42;;;;;;;9.33;5.30;;;7.50;99.90;;;;;;4423300;28;657699;-75
2024/02/23 01:32:30;;;;;;;9.30;4.53;;;7.60;99.90;;;;;;4445065;28;658167;-74
2024/02/23 01:35:17;;;;;;;8.60;4.40;;;7.70;99.90;;;;;;4441803;28;657897;-75
2024/02/23 01:38:05;;;;;;;13.13;6.80;;;7.60;99.90;;;;;;4424323;28;658101;-75
2024/02/23 01:40:54;;;;;;;12.37;7.33;;;7.50;99.90;;;;;;4438606;28;659370;-75
2024/02/23 01:43:41;;;;;;;14.10;7.13;;;7.50;99.90;;;;;;4432922;28;658530;-75
2024/02/23 01:46:28;;;;;;;42.63;13.97;;;7.50;99.90;;;;;;4424297;28;658493;-75
2024/02/23 01:49:16;;;;;;;27.50;10.43;;;7.50;99.90;;;;;;4434014;28;660488;-75
2024/02/23 01:52:03;;;;;;;48.07;17.03;;;7.50;99.90;;;;;;4415352;28;660096;-75
2024/02/23 01:54:50;;;;;;;30.60;11.10;;;7.50;99.90;;;;;;4441540;28;660908;-74
2024/02/23 01:57:39;;;;;;;31.80;11.77;;;7.50;99.90;;;;;;4413801;28;660206;-75
2024/02/23 02:00:26;;;;;;;47.37;18.00;;;7.50;99.90;;;;;;4422443;28;659440;-74
2024/02/23 02:03:13;;;;;;;44.90;17.13;;;7.40;99.90;;;;;;4414840;28;660384;-74
2024/02/23 02:06:01;;;;;;;43.30;16.40;;;7.40;99.90;;;;;;4440379;28;660435;-75
2024/02/23 02:08:48;;;;;;;43.30;16.53;;;7.40;99.90;;;;;;4409867;28;660166;-75
2024/02/23 02:11:35;;;;;;;50.97;19.37;;;7.40;1.00;;;;;;4428153;28;660836;-75
2024/02/23 02:14:25;;;;;;;124.57;41.80;;;7.30;1.00;;;;;;4410401;28;658469;-75
2024/02/23 02:17:12;;;;;;;36.87;13.17;;;7.30;1.00;;;;;;4432748;28;660115;-75
2024/02/23 02:20:00;;;;;;;31.00;12.87;;;7.20;6.40;;;;;;4432523;28;658915;-75
2024/02/23 02:22:47;;;;;;;38.97;14.80;;;7.10;99.90;;;;;;4436915;28;658929;-75
2024/02/23 02:25:35;;;;;;;30.80;12.30;;;7.10;99.90;;;;;;4428687;28;659815;-74
2024/02/23 02:28:23;;;;;;;20.53;8.50;;;7.30;1.00;;;;;;4428053;28;660106;-74
2024/02/23 02:31:11;;;;;;;45.97;16.97;;;7.20;1.00;;;;;;4421743;28;658494;-74
2024/02/23 02:33:59;;;;;;;33.33;13.53;;;7.30;1.00;;;;;;4419106;28;658190;-75
2024/02/23 02:36:46;;;;;;;104.47;34.07;;;7.20;1.00;;;;;;4426789;28;659527;-75
2024/02/23 02:39:33;;;;;;;61.03;20.73;;;7.20;1.00;;;;;;4416190;28;659854;-75
2024/02/23 02:42:20;;;;;;;43.73;16.60;;;7.20;8.80;;;;;;4437340;28;659491;-75
2024/02/23 02:45:08;;;;;;;92.20;31.43;;;7.10;99.90;;;;;;4410441;28;659824;-74
2024/02/23 02:47:57;;;;;;;48.33;20.33;;;7.00;99.90;;;;;;4441307;28;660442;-74
2024/02/23 02:50:44;;;;;;;34.87;16.40;;;7.00;99.90;;;;;;4413727;28;660442;-74
2024/02/23 02:53:32;;;;;;;22.90;10.53;;;6.90;1.00;;;;;;4435640;28;659749;-74
2024/02/23 02:56:19;;;;;;;22.60;11.90;;;6.90;1.00;;;;;;4415333;28;659336;-74
2024/02/23 02:59:06;;;;;;;12.50;5.97;;;6.90;1.00;;;;;;4442109;28;658827;-75
2024/02/23 03:01:53;;;;;;;19.50;8.77;;;6.90;1.00;;;;;;4420979;28;657730;-74
2024/02/23 03:04:49;;;;;;;17.13;9.00;;;6.90;1.00;;;;;;4437292;28;658953;-74
2024/02/23 03:07:36;;;;;;;3.30;2.10;;;7.10;1.00;;;;;;4408986;28;657532;-74
2024/02/23 03:10:23;;;;;;;9.87;4.07;;;7.40;1.00;;;;;;4416932;28;656871;-75
2024/02/23 03:13:11;;;;;;;7.03;3.47;;;7.50;99.90;;;;;;4440404;28;657875;-74
2024/02/23 03:15:58;;;;;;;4.73;2.50;;;7.50;99.90;;;;;;4419483;28;658104;-75
2024/02/23 03:18:45;;;;;;;4.37;2.50;;;7.50;99.90;;;;;;4439939;28;658722;-74
2024/02/23 03:21:34;;;;;;;5.05;2.47;;;7.70;1.00;;;;;;4402662;28;658098;-74
2024/02/23 03:24:21;;;;;;;4.57;2.40;;;7.90;99.90;;;;;;4437778;28;656279;-74
2024/02/23 03:27:08;;;;;;;5.03;2.70;;;7.80;1.00;;;;;;4409034;28;657714;-74
2024/02/23 03:29:56;;;;;;;4.80;2.00;;;7.80;99.90;;;;;;4438907;28;657306;-74
2024/02/23 03:32:43;;;;;;;4.03;2.40;;;8.10;99.90;;;;;;4408534;28;657973;-74
2024/02/23 03:35:30;;;;;;;4.33;2.10;;;8.00;99.90;;;;;;4431613;28;658538;-74
2024/02/23 03:38:19;;;;;;;4.40;2.10;;;7.90;1.00;;;;;;4389730;28;657816;-74
2024/02/23 03:41:07;;;;;;;3.70;2.20;;;7.90;1.00;;;;;;4426257;28;656864;-74
2024/02/23 03:44:02;;;;;;;7.00;3.90;;;7.80;51.80;;;;;;4955634;27;181141;-74
2024/02/23 03:46:49;;;;;;;5.33;2.70;;;7.60;99.90;;;;;;4431417;28;650419;-74
2024/02/23 03:49:36;;;;;;;5.82;2.60;;;7.40;1.00;;;;;;4453857;28;649442;-74
2024/02/23 03:52:24;;;;;;;5.23;2.73;;;7.30;55.50;;;;;;4440132;28;648653;-74
2024/02/23 03:55:11;;;;;;;4.40;2.47;;;7.30;99.90;;;;;;4460528;28;649513;-74
2024/02/23 03:57:59;;;;;;;3.83;2.47;;;7.40;99.90;;;;;;4451609;28;649425;-74
2024/02/23 04:00:47;;;;;;;6.20;3.60;;;7.30;99.90;;;;;;4454908;28;650507;-74
2024/02/23 04:03:35;;;;;;;11.50;5.40;;;7.30;99.90;;;;;;4442390;28;651538;-74
2024/02/23 04:06:22;;;;;;;7.43;3.33;;;7.20;43.10;;;;;;4383741;28;652164;-74
2024/02/23 04:09:10;;;;;;;4.97;2.90;;;7.10;99.60;;;;;;4371564;28;650435;-74
2024/02/23 04:11:57;;;;;;;6.30;2.87;;;7.00;99.90;;;;;;4361402;28;651256;-74
2024/02/23 04:14:45;;;;;;;4.87;2.47;;;7.00;99.90;;;;;;4398378;28;651628;-74
2024/02/23 04:17:34;;;;;;;4.73;2.57;;;7.00;99.90;;;;;;4454871;28;651312;-74
2024/02/23 04:20:21;;;;;;;7.00;3.10;;;7.00;1.00;;;;;;4462641;28;651270;-74
2024/02/23 04:23:08;;;;;;;7.80;3.40;;;6.90;99.90;;;;;;4437068;28;650509;-74
2024/02/23 04:25:55;;;;;;;5.53;2.90;;;6.90;99.90;;;;;;4459174;28;652266;-74
2024/02/23 04:28:43;;;;;;;5.43;2.53;;;6.90;1.00;;;;;;4433680;28;651072;-74
2024/02/23 04:31:30;;;;;;;4.90;2.60;;;6.80;99.90;;;;;;4459220;28;651745;-74
2024/02/23 04:34:19;;;;;;;3.90;2.17;;;7.00;99.90;;;;;;4449033;28;651550;-74
2024/02/23 04:37:06;;;;;;;4.60;2.10;;;7.30;1.00;;;;;;4449298;28;652071;-73
2024/02/23 04:39:53;;;;;;;5.55;2.50;;;7.40;99.90;;;;;;4431807;28;650906;-74
2024/02/23 04:42:41;;;;;;;3.30;1.93;;;7.50;2.70;;;;;;4443704;28;651302;-73
2024/02/23 04:45:28;;;;;;;3.43;2.20;;;7.60;1.00;;;;;;4428526;28;650354;-73
2024/02/23 04:48:15;;;;;;;4.63;2.33;;;7.60;91.50;;;;;;4440743;28;650063;-74
2024/02/23 04:51:06;;;;;;;2.77;2.00;;;7.50;99.90;;;;;;4429575;28;651583;-74
2024/02/23 04:53:53;;;;;;;4.30;2.60;;;7.50;99.90;;;;;;4418057;28;651511;-74
2024/02/23 04:56:40;;;;;;;2.83;1.27;;;7.40;1.00;;;;;;4436163;28;652339;-74
2024/02/23 04:59:28;;;;;;;5.20;2.60;;;7.50;99.90;;;;;;4414499;28;650234;-74
2024/02/23 05:02:15;;;;;;;3.60;2.00;;;7.50;99.90;;;;;;4422037;28;652404;-74
2024/02/23 05:05:04;;;;;;;4.73;2.33;;;7.40;1.00;;;;;;4414892;28;652038;-74
2024/02/23 05:07:52;;;;;;;2.93;1.97;;;7.40;1.00;;;;;;4434313;28;649985;-73
2024/02/23 05:10:40;;;;;;;9.13;2.53;;;7.40;1.00;;;;;;4408683;28;650923;-73
2024/02/23 05:13:27;;;;;;;3.57;1.93;;;7.40;1.00;;;;;;4440607;28;650105;-73
2024/02/23 05:16:15;;;;;;;4.27;2.30;;;7.30;99.90;;;;;;4438737;28;650789;-73
2024/02/23 05:19:02;;;;;;;4.10;1.90;;;7.20;99.90;;;;;;4418239;28;651582;-74
2024/02/23 05:21:50;;;;;;;4.73;2.20;;;7.20;99.90;;;;;;4430210;28;652822;-73
2024/02/23 05:24:38;;;;;;;3.83;2.40;;;7.10;1.00;;;;;;4418546;28;652321;-74
2024/02/23 05:27:27;;;;;;;2.07;1.87;;;7.10;99.90;;;;;;4410460;28;651712;-74
2024/02/23 05:30:14;;;;;;;3.37;2.10;;;7.00;1.00;;;;;;4415113;28;652231;-74
2024/02/23 05:33:03;;;;;;;2.97;2.00;;;6.90;1.00;;;;;;4419703;28;650003;-74
2024/02/23 05:35:50;;;;;;;5.35;2.55;;;6.80;99.90;;;;;;4404223;28;651615;-73
2024/02/23 05:38:38;;;;;;;7.83;2.63;;;6.90;99.90;;;;;;4416433;28;652104;-73
2024/02/23 05:41:26;;;;;;;3.60;2.33;;;6.90;99.90;;;;;;4427913;28;651005;-73
2024/02/23 05:44:13;;;;;;;3.50;2.17;;;6.90;99.90;;;;;;4411955;28;651991;-73
2024/02/23 05:47:01;;;;;;;3.60;2.30;;;6.90;1.00;;;;;;4435831;28;651555;-74
2024/02/23 05:49:48;;;;;;;4.63;2.80;;;6.80;1.00;;;;;;4414462;28;650224;-74
2024/02/23 05:52:36;;;;;;;6.60;3.13;;;6.80;1.00;;;;;;4439984;28;650634;-74
2024/02/23 05:55:23;;;;;;;5.07;2.70;;;6.80;1.00;;;;;;4400361;28;650438;-74
2024/02/23 05:58:13;;;;;;;9.83;3.13;;;6.80;1.00;;;;;;4437700;28;650588;-74
2024/02/23 06:01:00;;;;;;;8.97;4.13;;;6.80;1.00;;;;;;4409872;28;650660;-74
2024/02/23 06:03:48;;;;;;;13.53;5.47;;;6.70;95.00;;;;;;4415520;28;650622;-74
2024/02/23 06:06:35;;;;;;;11.50;4.80;;;6.60;95.30;;;;;;4419483;28;653339;-74
2024/02/23 06:09:22;;;;;;;7.60;4.00;;;6.60;99.90;;;;;;4425118;28;652868;-74
2024/02/23 06:12:10;;;;;;;9.53;4.50;;;6.60;99.90;;;;;;4434857;28;651463;-74
2024/02/23 06:14:59;;;;;;;34.10;11.47;;;6.60;99.90;;;;;;4410271;28;651307;-74
2024/02/23 06:17:46;;;;;;;38.83;13.83;;;6.70;99.90;;;;;;4432332;28;653570;-74
2024/02/23 06:20:33;;;;;;;62.40;17.77;;;6.60;99.90;;;;;;4409443;28;653267;-74
2024/02/23 06:23:21;;;;;;;54.87;17.57;;;6.70;1.00;;;;;;4431134;28;654072;-74
2024/02/23 06:26:09;;;;;;;55.23;17.20;;;6.70;1.00;;;;;;4402313;28;652178;-74
2024/02/23 06:28:56;;;;;;;38.77;12.53;;;6.80;1.00;;;;;;4429380;28;652817;-74
2024/02/23 06:31:48;;;;;;;37.57;12.17;;;6.80;1.00;;;;;;4407318;28;654093;-74
2024/02/23 06:34:36;;;;;;;12.13;6.03;;;6.90;1.00;;;;;;4405656;28;654643;-74
2024/02/23 06:37:23;;;;;;;8.50;4.80;;;6.90;1.00;;;;;;4385502;28;652778;-74
2024/02/23 06:40:11;;;;;;;5.03;3.43;;;6.90;99.90;;;;;;4408395;28;651992;-74
2024/02/23 06:42:58;;;;;;;4.07;2.90;;;7.10;1.00;;;;;;4409071;28;652451;-74
2024/02/23 06:45:45;;;;;;;4.97;2.78;;;7.20;99.90;;;;;;4433962;28;651501;-74
2024/02/23 06:48:34;;;;;;;4.83;2.80;;;7.20;99.90;;;;;;4414979;28;652420;-74
2024/02/23 06:51:21;;;;;;;7.57;3.50;;;7.20;28.30;;;;;;4429764;28;652179;-74
2024/02/23 06:54:09;;;;;;;5.03;3.10;;;7.20;1.00;;;;;;4407790;28;652691;-74
2024/02/23 06:56:56;;;;;;;4.63;2.43;;;7.20;99.90;;;;;;4425462;28;651456;-74
2024/02/23 06:59:44;;;;;;;4.37;2.60;;;7.30;1.00;;;;;;4404520;28;651927;-74
2024/02/23 07:02:34;;;;;;;4.00;2.40;;;7.40;1.00;;;;;;4432495;28;651134;-73
2024/02/23 07:05:23;;;;;;;8.07;2.20;;;7.40;1.00;;;;;;4407854;28;651953;-73
2024/02/23 07:08:10;;;;;;;4.87;2.80;;;7.30;1.00;;;;;;4401874;28;651909;-73
2024/02/23 07:10:58;;;;;;;4.83;2.93;;;7.30;1.00;;;;;;4416811;28;651422;-73
2024/02/23 07:13:45;;;;;;;5.93;2.87;;;7.30;99.90;;;;;;4419333;28;652558;-73
2024/02/23 07:16:32;;;;;;;7.50;3.37;;;7.20;99.90;;;;;;4413804;28;652882;-73
2024/02/23 07:19:20;;;;;;;9.07;3.10;;;7.20;99.90;;;;;;4422437;28;652650;-73
2024/02/23 07:22:09;;;;;;;11.43;3.57;;;7.30;99.90;;;;;;4418730;28;652257;-73
2024/02/23 07:24:56;;;;;;;4.90;2.80;;;7.20;99.90;;;;;;4431431;28;653427;-74
2024/02/23 07:27:43;;;;;;;4.40;3.00;;;7.20;1.00;;;;;;4412928;28;653338;-74
2024/02/23 07:30:31;;;;;;;5.97;3.27;;;7.30;1.00;;;;;;4450230;28;651812;-73
2024/02/23 07:33:18;;;;;;;4.33;3.13;;;7.30;1.00;;;;;;4406537;28;651287;-73
2024/02/23 07:36:08;;;;;;;6.40;3.20;;;7.30;1.00;;;;;;4431857;28;652979;-73
2024/02/23 07:38:57;;;;;;;5.90;4.10;;;7.30;1.00;;;;;;4414925;28;652883;-74
2024/02/23 07:41:44;;;;;;;5.33;3.73;;;7.40;67.30;;;;;;4402632;28;652065;-74
2024/02/23 07:44:31;;;;;;;7.87;3.93;;;7.40;93.00;;;;;;4426862;28;652556;-74
2024/02/23 07:47:18;;;;;;;8.03;5.00;;;7.40;99.90;;;;;;4416064;28;652673;-74
2024/02/23 07:50:07;;;;;;;15.00;7.07;;;7.40;99.90;;;;;;4429262;28;653548;-74
2024/02/23 07:52:54;;;;;;;15.60;6.70;;;7.30;99.90;;;;;;4409330;28;654330;-74
2024/02/23 07:55:43;;;;;;;15.97;9.17;;;7.30;99.90;;;;;;4429446;28;653562;-74
2024/02/23 07:58:30;;;;;;;18.77;9.93;;;7.40;99.90;;;;;;4402839;28;653761;-74
2024/02/23 08:01:17;;;;;;;21.10;11.63;;;7.50;99.90;;;;;;4412814;28;654011;-74
2024/02/23 08:04:05;;;;;;;22.03;11.90;;;7.40;99.90;;;;;;4420585;28;655746;-74
2024/02/23 08:06:52;;;;;;;28.97;14.77;;;7.50;99.90;;;;;;4419943;28;654314;-74
2024/02/23 08:09:40;;;;;;;28.23;14.03;;;7.50;99.90;;;;;;4423072;28;655462;-73
2024/02/23 08:12:28;;;;;;;30.80;16.20;;;7.40;99.90;;;;;;4367403;28;655071;-75
2024/02/23 08:15:16;;;;;;;33.67;17.13;;;7.30;99.90;;;;;;4307396;28;655204;-75
2024/02/23 08:18:03;;;;;;;29.83;16.50;;;7.30;99.90;;;;;;4299330;28;654943;-75
2024/02/23 08:20:50;;;;;;;32.13;16.47;;;7.20;99.90;;;;;;4336806;28;654222;-74
2024/02/23 08:23:38;;;;;;;24.47;13.60;;;7.30;99.90;;;;;;4409934;28;655707;-74
2024/02/23 08:26:25;;;;;;;19.47;11.20;;;7.30;99.90;;;;;;4423727;28;656818;-73
2024/02/23 08:29:14;;;;;;;24.33;12.97;;;7.30;99.90;;;;;;4407642;28;655441;-74
2024/02/23 08:32:01;;;;;;;22.40;12.00;;;7.20;99.90;;;;;;4438902;28;656473;-73
2024/02/23 08:34:49;;;;;;;22.77;12.10;;;7.20;1.00;;;;;;4387846;28;655665;-74
2024/02/23 08:37:36;;;;;;;28.03;13.60;;;7.30;1.00;;;;;;4431302;28;654763;-74
2024/02/23 08:40:23;;;;;;;24.63;14.60;;;7.30;1.00;;;;;;4413816;28;654639;-74
2024/02/23 08:43:10;;;;;;;27.02;16.02;;;7.30;1.00;;;;;;4422665;28;654807;-74
2024/02/23 08:45:59;;;;;;;31.33;17.93;;;7.30;1.00;;;;;;4402290;28;655027;-74
2024/02/23 08:48:47;;;;;;;31.93;16.57;;;7.30;1.00;;;;;;4432654;28;654541;-74
2024/02/23 08:51:34;;;;;;;26.83;15.17;;;7.30;1.00;;;;;;4401794;28;655244;-73
2024/02/23 08:54:22;;;;;;;30.27;17.13;;;7.30;1.00;;;;;;4422413;28;654477;-74
2024/02/23 08:57:09;;;;;;;24.90;13.40;;;7.30;1.00;;;;;;4414555;28;655022;-73
2024/02/23 08:59:57;;;;;;;28.97;15.77;;;7.30;1.00;;;;;;4421396;28;654691;-73
2024/02/23 09:02:46;;;;;;;28.90;16.03;;;7.40;1.00;;;;;;4405819;28;654905;-73
2024/02/23 09:05:33;;;;;;;28.83;16.57;;;7.40;1.00;;;;;;4382805;28;654221;-73
2024/02/23 09:08:20;;;;;;;24.83;13.53;;;7.40;1.00;;;;;;4419667;28;655325;-73
2024/02/23 09:11:08;;;;;;;27.37;14.63;;;7.40;1.00;;;;;;4393548;28;654631;-73
2024/02/23 09:13:55;;;;;;;28.23;15.10;;;7.30;1.00;;;;;;4428656;28;655685;-73
2024/02/23 09:16:42;;;;;;;22.17;11.47;;;7.20;1.00;;;;;;4417779;28;654605;-73
2024/02/23 09:19:31;;;;;;;31.17;14.33;;;7.30;1.00;;;;;;4430933;28;654783;-73
2024/02/23 09:22:18;;;;;;;24.03;13.97;;;7.30;1.00;;;;;;4417342;28;655006;-73
2024/02/23 09:25:08;;;;;;;10.27;5.60;;;7.30;1.00;;;;;;4427129;28;654924;-73
2024/02/23 09:27:58;;;;;;;28.43;15.27;;;7.30;1.00;;;;;;4405934;28;653579;-74
2024/02/23 09:30:45;;;;;;;25.17;15.27;;;7.30;1.00;;;;;;4404395;28;654808;-74
2024/02/23 09:33:32;;;;;;;26.70;15.43;;;7.30;1.00;;;;;;4412977;28;654194;-74
2024/02/23 09:36:21;;;;;;;26.53;14.97;;;7.20;1.00;;;;;;4418188;28;655469;-74
2024/02/23 09:39:08;;;;;;;26.57;14.37;;;7.30;1.00;;;;;;4406698;28;654561;-74
2024/02/23 09:41:56;;;;;;;25.37;14.80;;;7.30;1.00;;;;;;4425869;28;655334;-74
2024/02/23 09:44:43;;;;;;;23.90;12.50;;;7.50;1.00;;;;;;4408948;28;654297;-74
2024/02/23 09:47:31;;;;;;;25.60;13.07;;;7.40;1.00;;;;;;4432430;28;655287;-74
2024/02/23 09:50:21;;;;;;;25.30;12.33;;;7.50;1.00;;;;;;4399160;28;655003;-73
2024/02/23 09:53:10;;;;;;;31.73;15.83;;;7.50;1.00;;;;;;4412345;28;654466;-73
2024/02/23 09:55:58;;;;;;;28.40;15.57;;;7.50;1.00;;;;;;4412234;28;654464;-74
2024/02/23 09:58:45;;;;;;;28.40;15.77;;;7.60;1.00;;;;;;4429839;28;655385;-73
2024/02/23 10:01:33;;;;;;;25.13;14.97;;;7.50;1.00;;;;;;4412137;28;654588;-73
2024/02/23 10:04:20;;;;;;;25.53;14.63;;;7.60;1.00;;;;;;4432897;28;654605;-73
2024/02/23 10:07:07;;;;;;;27.60;14.43;;;7.60;1.00;;;;;;4401011;28;654951;-73
2024/02/23 10:09:57;;;;;;;23.57;12.87;;;7.60;1.00;;;;;;4427939;28;655362;-73
2024/02/23 10:12:44;;;;;;;29.00;14.30;;;7.60;1.00;;;;;;4390974;28;655236;-73
2024/02/23 10:15:32;;;;;;;31.20;17.30;;;7.70;1.00;;;;;;4425156;28;654867;-73
2024/02/23 10:18:19;;;;;;;28.43;15.03;;;7.80;1.00;;;;;;4413164;28;654561;-73
2024/02/23 10:21:06;;;;;;;24.40;11.20;;;7.90;1.00;;;;;;4425348;28;655186;-73
2024/02/23 10:23:53;;;;;;;19.93;11.80;;;7.90;1.00;;;;;;4396379;28;654782;-73
2024/02/23 10:26:42;;;;;;;21.23;11.27;;;8.00;1.00;;;;;;4429380;28;654981;-73
2024/02/23 10:29:29;;;;;;;18.63;10.63;;;8.10;1.00;;;;;;4411399;28;655133;-73
2024/02/23 10:32:16;;;;;;;16.13;9.30;;;8.10;1.00;;;;;;4427427;28;654241;-73
2024/02/23 10:35:04;;;;;;;16.38;9.15;;;8.20;99.90;;;;;;4408055;28;653253;-73
2024/02/23 10:37:53;;;;;;;12.68;7.10;;;8.20;99.90;;;;;;4415385;28;655148;-73
2024/02/23 10:40:41;;;;;;;12.37;5.67;;;8.10;66.30;;;;;;4403694;28;656120;-73
2024/02/23 10:43:31;;;;;;;16.57;7.20;;;8.20;99.90;;;;;;4394253;28;654875;-73
2024/02/23 10:46:19;;;;;;;8.87;4.77;;;8.30;99.50;;;;;;4416183;28;654831;-73
2024/02/23 10:49:06;;;;;;;9.33;5.27;;;8.40;1.00;;;;;;4421139;28;654108;-73
2024/02/23 10:51:54;;;;;;;10.67;5.20;;;8.30;1.00;;;;;;4412290;28;652508;-73
2024/02/23 10:54:41;;;;;;;7.33;3.20;;;8.40;1.00;;;;;;4433026;28;653525;-73
2024/02/23 10:57:28;;;;;;;7.97;4.00;;;8.40;99.90;;;;;;4408036;28;652008;-73
2024/02/23 11:00:18;;;;;;;8.23;4.63;;;8.20;1.00;;;;;;4427702;28;654823;-73
2024/02/23 11:03:06;;;;;;;8.83;4.07;;;8.30;1.00;;;;;;4405871;28;652998;-73
2024/02/23 11:05:55;;;;;;;8.40;3.93;;;8.40;99.60;;;;;;4413681;28;652982;-73
2024/02/23 11:08:42;;;;;;;6.67;3.60;;;8.20;99.90;;;;;;4430496;28;653571;-73
2024/02/23 11:11:29;;;;;;;9.67;3.97;;;8.20;1.00;;;;;;4409517;28;654805;-73
2024/02/23 11:14:16;;;;;;;6.17;3.90;;;8.20;1.00;;;;;;4431995;28;653344;-73
2024/02/23 11:17:05;;;;;;;7.77;3.80;;;8.10;1.00;;;;;;4407558;28;652274;-74
2024/02/23 11:19:53;;;;;;;8.17;4.17;;;8.00;1.00;;;;;;4412329;28;652107;-74
2024/02/23 11:22:40;;;;;;;3.37;1.33;;;8.00;1.00;;;;;;4433234;28;653425;-73
2024/02/23 11:25:28;;;;;;;6.20;3.87;;;8.00;1.00;;;;;;4424552;28;652780;-74
2024/02/23 11:28:23;;;;;;;7.50;3.97;;;7.90;1.00;;;;;;4422024;28;654155;-74
2024/02/23 11:31:14;;;;;;;9.33;3.77;;;8.00;1.00;;;;;;4409442;28;653520;-74
2024/02/23 11:34:03;;;;;;;7.03;3.83;;;8.10;90.40;;;;;;4415926;28;652857;-73
2024/02/23 11:36:52;;;;;;;7.90;3.50;;;8.00;1.00;;;;;;4395247;28;653814;-73
2024/02/23 11:39:40;;;;;;;6.43;3.97;;;8.10;1.00;;;;;;4412884;28;652318;-73
2024/02/23 11:42:27;;;;;;;7.20;3.80;;;8.20;1.00;;;;;;4424860;28;652678;-73
2024/02/23 11:45:15;;;;;;;5.83;3.40;;;8.20;1.00;;;;;;4402909;28;653425;-73
2024/02/23 11:48:02;;;;;;;7.53;3.27;;;8.10;1.00;;;;;;4422834;28;652623;-73
2024/02/23 11:50:51;;;;;;;5.90;3.40;;;8.10;99.90;;;;;;4407557;28;653299;-73
2024/02/23 11:53:38;;;;;;;6.50;3.53;;;8.00;99.90;;;;;;4404765;28;653507;-73
2024/02/23 11:56:25;;;;;;;7.43;3.27;;;8.00;1.00;;;;;;4432971;28;654406;-73
2024/02/23 11:59:13;;;;;;;6.87;3.53;;;8.00;1.00;;;;;;4410714;28;652370;-73
2024/02/23 12:02:00;;;;;;;7.87;4.10;;;8.00;99.90;;;;;;4437831;28;652986;-73
2024/02/23 12:04:47;;;;;;;9.00;4.27;;;8.00;1.00;;;;;;4422032;28;654015;-73
2024/02/23 12:07:36;;;;;;;9.03;3.60;;;8.10;1.00;;;;;;4449762;28;653353;-74
2024/02/23 12:10:25;;;;;;;5.77;3.47;;;8.20;1.00;;;;;;4413503;28;652355;-73
2024/02/23 12:13:12;;;;;;;6.10;3.50;;;8.10;1.00;;;;;;4415527;28;652241;-73
2024/02/23 12:16:00;;;;;;;10.47;4.07;;;8.20;1.00;;;;;;4427621;28;652498;-74
2024/02/23 12:18:48;;;;;;;7.43;3.87;;;8.00;1.00;;;;;;4426478;28;653944;-73
2024/02/23 12:21:36;;;;;;;8.17;3.63;;;8.10;1.00;;;;;;4439913;28;653398;-73
2024/02/23 12:24:25;;;;;;;8.07;3.90;;;8.20;99.90;;;;;;4421583;28;652279;-74
2024/02/23 12:27:13;;;;;;;8.90;3.97;;;8.20;99.90;;;;;;4411401;28;653201;-74
2024/02/23 12:30:00;;;;;;;7.17;4.07;;;8.10;1.00;;;;;;4431587;28;654716;-74
2024/02/23 12:32:47;;;;;;;7.60;3.63;;;8.20;1.00;;;;;;4417842;28;652741;-73
2024/02/23 12:35:35;;;;;;;6.90;3.80;;;8.40;1.00;;;;;;4427640;28;653354;-74
2024/02/23 12:38:22;;;;;;;10.17;4.00;;;8.20;99.90;;;;;;4431971;28;652327;-73
2024/02/23 12:41:12;;;;;;;7.53;4.03;;;8.40;1.00;;;;;;4445227;28;656007;-73
2024/02/23 12:43:59;;;;;;;8.93;4.37;;;8.40;99.90;;;;;;4412463;28;652950;-73
2024/02/23 12:46:46;;;;;;;7.20;3.73;;;8.50;1.00;;;;;;4430942;28;653768;-74
2024/02/23 12:49:34;;;;;;;8.00;3.53;;;8.60;1.00;;;;;;4409351;28;652914;-73
2024/02/23 12:52:21;;;;;;;6.33;3.87;;;8.70;99.90;;;;;;4427583;28;653110;-73
2024/02/23 12:55:09;;;;;;;8.25;3.90;;;8.50;1.00;;;;;;4402472;28;653454;-73
2024/02/23 12:57:57;;;;;;;9.63;4.57;;;8.50;99.90;;;;;;4431472;28;651914;-73
2024/02/23 13:00:45;;;;;;;7.10;4.17;;;8.30;99.90;;;;;;4400087;28;653804;-73
2024/02/23 13:03:32;;;;;;;8.20;4.63;;;8.40;1.00;;;;;;4430263;28;654394;-73
2024/02/23 13:06:20;;;;;;;8.77;4.67;;;8.40;99.90;;;;;;4428764;28;653122;-73
2024/02/23 13:09:08;;;;;;;7.73;4.40;;;8.40;1.00;;;;;;4431383;28;653321;-73
2024/02/23 13:11:55;;;;;;;8.03;5.27;;;8.50;1.00;;;;;;4406573;28;652699;-73
2024/02/23 13:14:44;;;;;;;10.73;5.20;;;8.40;1.00;;;;;;4410605;28;652874;-73
2024/02/23 13:17:31;;;;;;;10.63;6.10;;;8.40;1.00;;;;;;4429954;28;653703;-73
2024/02/23 13:20:18;;;;;;;9.90;5.67;;;8.50;1.00;;;;;;4419753;28;653591;-74
2024/02/23 13:23:08;;;;;;;11.73;5.47;;;8.50;1.00;;;;;;4424216;28;653266;-73
2024/02/23 13:25:55;;;;;;;7.83;4.77;;;8.50;1.00;;;;;;4387635;28;654828;-74
2024/02/23 13:28:43;;;;;;;8.97;5.00;;;8.50;99.90;;;;;;4415836;28;653352;-74
2024/02/23 13:31:32;;;;;;;11.00;5.47;;;8.50;1.00;;;;;;4421956;28;653085;-74
2024/02/23 13:34:19;;;;;;;12.60;6.73;;;8.40;99.90;;;;;;4408813;28;653951;-74
2024/02/23 13:37:07;;;;;;;10.50;5.67;;;8.40;1.00;;;;;;4405425;28;654091;-74
2024/02/23 13:39:54;;;;;;;15.70;6.47;;;8.30;1.00;;;;;;4407718;28;653278;-74
2024/02/23 13:42:41;;;;;;;9.70;5.60;;;8.40;1.00;;;;;;4421288;28;653472;-74
2024/02/23 13:45:28;;;;;;;13.17;5.20;;;8.40;1.00;;;;;;4411126;28;653074;-74
2024/02/23 13:48:18;;;;;;;12.27;6.10;;;8.40;63.70;;;;;;4414555;28;654146;-74
2024/02/23 13:51:05;;;;;;;14.00;7.13;;;8.30;49.70;;;;;;4377182;28;654973;-74
2024/02/23 13:53:53;;;;;;;19.30;8.90;;;8.30;99.20;;;;;;4397044;28;654311;-74
2024/02/23 13:56:40;;;;;;;22.70;12.97;;;8.30;99.90;;;;;;4422023;28;655511;-74
2024/02/23 13:59:27;;;;;;;28.80;15.90;;;8.30;99.90;;;;;;4424665;28;655594;-74
2024/02/23 14:02:15;;;;;;;28.50;15.70;;;8.30;99.90;;;;;;4425203;28;656702;-74
2024/02/23 14:05:06;;;;;;;26.40;16.03;;;8.20;99.90;;;;;;4418420;28;655996;-74
2024/02/23 14:07:54;;;;;;;31.17;18.03;;;8.30;99.90;;;;;;4402509;28;656053;-74
2024/02/23 14:10:42;;;;;;;25.70;14.93;;;8.40;99.90;;;;;;4428988;28;656066;-74
2024/02/23 14:13:30;;;;;;;21.17;13.67;;;8.40;99.90;;;;;;4397469;28;656358;-74
2024/02/23 14:16:17;;;;;;;28.00;15.50;;;8.30;99.90;;;;;;4403353;28;655743;-74
2024/02/23 14:19:05;;;;;;;30.43;14.80;;;8.30;99.90;;;;;;4343979;28;655707;-75
2024/02/23 14:21:54;;;;;;;43.20;19.20;;;8.40;99.90;;;;;;4337288;28;655102;-74
2024/02/23 14:24:41;;;;;;;47.90;21.27;;;8.30;99.90;;;;;;4349213;28;655346;-75
2024/02/23 14:27:29;;;;;;;48.63;22.00;;;8.30;99.90;;;;;;4350589;28;655703;-73